Galax, Virginia
Current Conditions -  °F | °C
As of 2:35 AM on Saturday 29 Nov 2014 (Local Time) from KHLX Reporting Station
Clear Clear  
Wind Chill: 24°   Ceiling: Unl
Heat Index: 29°   Visibility: 10mi
Dew Point: 18°   Wind: 5mph
Humidity: 63%   Direction: 200°SSW
Pressure: 30.18"   Gusts: NA
Location:  36.67°N, 80.93°W
Report Text: KHLX 290735Z AUTO 20004KT 10SM CLR M01/M08 A3018 RMK AO2 T10151078
Loading
Personal Weather Stations






























Interactive Weather Map New forecast layout! Learn more

10-Day Weather Forecast

Advertisements
Track Severe Weather on mobile